Time;durP1;ratioP1;P1;durP2;ratioP2;P2;SDS_P1;SDS_P2;PMS_P1;PMS_P2;Temp;Humidity;BMP_temperature;BMP_pressure;BME280_temperature;BME280_humidity;BME280_pressure;Samples;Min_cycle;Max_cycle;Signal;HPM_P1;HPM_P2
2022/09/29 00:01:08;;;;;;;6.50;2.40;;;21.90;99.90;;;;;;5031472;28;20560;-74
2022/09/29 00:03:37;;;;;;;4.88;2.33;;;21.90;99.90;;;;;;5052344;28;20075;-72
2022/09/29 00:06:12;;;;;;;7.22;2.17;;;21.90;99.90;;;;;;5052525;28;20064;-72
2022/09/29 00:08:40;;;;;;;7.28;2.08;;;21.90;99.90;;;;;;5016759;28;20529;-71
2022/09/29 00:11:10;;;;;;;6.53;2.53;;;21.90;99.90;;;;;;5017020;28;20395;-72
2022/09/29 00:13:37;;;;;;;8.63;3.75;;;21.80;99.90;;;;;;5049191;28;20499;-72
2022/09/29 00:16:05;;;;;;;6.70;2.13;;;21.70;99.90;;;;;;5029679;28;20061;-72
2022/09/29 00:18:34;;;;;;;4.82;2.20;;;21.50;99.90;;;;;;5048744;28;20045;-72
2022/09/29 00:21:11;;;;;;;9.00;3.00;;;21.40;99.90;;;;;;5016073;28;20405;-72
2022/09/29 00:23:39;;;;;;;5.07;2.35;;;21.40;99.90;;;;;;5049579;28;20037;-72
2022/09/29 00:26:14;;;;;;;6.07;2.80;;;21.30;99.90;;;;;;5050174;28;20111;-72
2022/09/29 00:28:55;;;;;;;5.72;2.67;;;21.20;99.90;;;;;;5034594;28;20081;-71
2022/09/29 00:31:25;;;;;;;10.18;2.47;;;21.00;99.90;;;;;;5034719;28;20585;-75
2022/09/29 00:33:53;;;;;;;4.10;2.17;;;20.80;99.90;;;;;;5034228;28;20051;-71
2022/09/29 00:36:22;;;;;;;6.65;2.30;;;20.70;99.90;;;;;;5033718;28;20139;-72
2022/09/29 00:38:53;;;;;;;7.03;2.78;;;20.60;99.90;;;;;;5034198;28;20067;-72
2022/09/29 00:41:24;;;;;;;6.20;2.42;;;20.50;99.90;;;;;;5051378;28;20491;-78
2022/09/29 00:43:51;;;;;;;7.90;3.00;;;20.50;99.90;;;;;;5051578;28;20436;-72
2022/09/29 00:46:45;;;;;;;7.82;2.97;;;20.40;99.90;;;;;;5050229;28;20049;-72
2022/09/29 00:49:25;;;;;;;6.25;2.38;;;20.50;99.90;;;;;;5051516;28;20056;-71
2022/09/29 00:52:04;;;;;;;5.30;3.10;;;20.50;99.90;;;;;;5051746;28;20052;-71
2022/09/29 00:54:40;;;;;;;8.38;2.80;;;20.40;99.90;;;;;;5050074;28;20367;-72
2022/09/29 00:57:09;;;;;;;9.88;4.00;;;20.30;99.90;;;;;;5017888;28;20048;-72
2022/09/29 00:59:49;;;;;;;8.80;2.80;;;20.40;99.90;;;;;;5050320;28;20077;-75
2022/09/29 01:02:19;;;;;;;9.05;3.00;;;20.50;99.90;;;;;;5016424;28;20057;-72
2022/09/29 01:04:50;;;;;;;14.13;3.25;;;20.60;99.90;;;;;;5050107;28;20135;-72
2022/09/29 01:07:23;;;;;;;8.77;2.90;;;20.70;99.90;;;;;;5051386;28;20052;-72
2022/09/29 01:09:55;;;;;;;10.35;2.67;;;20.80;99.90;;;;;;5050041;28;20395;-72
2022/09/29 01:12:23;;;;;;;7.95;3.00;;;20.90;99.90;;;;;;5033724;28;20036;-71
2022/09/29 01:14:52;;;;;;;8.65;3.13;;;21.00;99.90;;;;;;5049502;28;20052;-76
2022/09/29 01:17:20;;;;;;;5.72;2.60;;;21.10;99.90;;;;;;5050390;28;20139;-72
2022/09/29 01:20:03;;;;;;;6.20;3.28;;;21.10;99.90;;;;;;5033167;28;20078;-72
2022/09/29 01:23:09;;;;;;;5.20;2.67;;;21.10;99.90;;;;;;5033679;28;20209;-74
2022/09/29 01:25:58;;;;;;;7.38;3.42;;;21.00;99.90;;;;;;5009386;28;20129;-72
2022/09/29 01:28:55;;;;;;;11.00;3.60;;;21.00;99.90;;;;;;5009765;28;20072;-80
2022/09/29 01:31:29;;;;;;;;;;;20.90;99.90;;;;;;5024283;28;20045;-72
2022/09/29 01:34:26;;;;;;;8.75;3.10;;;20.80;99.90;;;;;;5031265;28;19921;-73
2022/09/29 01:37:33;;;;;;;14.80;4.75;;;20.60;99.90;;;;;;5006634;28;20041;-71
2022/09/29 01:40:07;;;;;;;8.80;4.53;;;20.40;99.90;;;;;;4987256;28;20053;-72
2022/09/29 01:42:54;;;;;;;10.98;4.32;;;20.40;99.90;;;;;;5030435;28;20041;-72
2022/09/29 01:45:28;;;;;;;6.57;3.72;;;20.40;99.90;;;;;;5030455;28;20133;-72
2022/09/29 01:48:00;;;;;;;9.27;4.30;;;20.40;99.90;;;;;;5029433;28;20049;-72
2022/09/29 01:50:39;;;;;;;8.73;4.10;;;20.40;99.90;;;;;;5013358;28;20049;-72
2022/09/29 01:53:16;;;;;;;11.27;3.92;;;20.40;99.90;;;;;;5031398;28;20140;-72
2022/09/29 01:55:50;;;;;;;12.20;4.32;;;20.40;99.90;;;;;;4998103;28;20148;-72
2022/09/29 01:58:26;;;;;;;8.02;3.20;;;20.40;99.90;;;;;;5030428;28;20103;-72
2022/09/29 02:00:59;;;;;;;10.07;4.05;;;20.50;99.90;;;;;;5014147;28;20129;-72
2022/09/29 02:04:05;;;;;;;7.38;3.70;;;20.50;99.90;;;;;;5013474;28;20488;-72
2022/09/29 02:06:41;;;;;;;10.40;4.30;;;20.50;99.90;;;;;;4988987;28;20064;-71
2022/09/29 02:09:11;;;;;;;;;;;20.50;99.90;;;;;;5024541;28;20091;-72
2022/09/29 02:11:41;;;;;;;9.30;3.60;;;20.60;99.90;;;;;;5029823;28;19931;-72
2022/09/29 02:14:22;;;;;;;4.90;3.03;;;20.60;99.90;;;;;;5029971;28;20372;-73
2022/09/29 02:17:18;;;;;;;7.28;4.03;;;20.60;99.90;;;;;;5032439;28;20048;-72
2022/09/29 02:19:49;;;;;;;9.32;4.60;;;20.50;99.90;;;;;;5050471;28;20144;-72
2022/09/29 02:22:18;;;;;;;5.38;2.95;;;20.50;99.90;;;;;;5032426;28;20059;-74
2022/09/29 02:24:47;;;;;;;6.13;3.60;;;20.50;99.90;;;;;;4999770;28;20419;-72
2022/09/29 02:27:14;;;;;;;11.95;3.78;;;20.40;99.90;;;;;;5052468;28;20442;-71
2022/09/29 02:29:43;;;;;;;7.97;2.97;;;20.40;99.90;;;;;;5038584;28;20139;-72
2022/09/29 02:32:12;;;;;;;7.90;4.03;;;20.40;99.90;;;;;;5037875;28;20111;-71
2022/09/29 02:34:44;;;;;;;5.80;3.35;;;20.50;99.90;;;;;;5054627;28;20048;-72
2022/09/29 02:37:18;;;;;;;11.50;4.05;;;20.50;99.90;;;;;;5036457;28;20467;-71
2022/09/29 02:39:57;;;;;;;8.90;4.38;;;20.60;99.90;;;;;;5053860;28;20493;-72
2022/09/29 02:42:54;;;;;;;8.20;4.55;;;20.60;99.90;;;;;;5004033;28;20459;-72
2022/09/29 02:45:27;;;;;;;5.93;3.25;;;20.60;99.90;;;;;;5003368;28;20138;-72
2022/09/29 02:48:03;;;;;;;8.15;3.67;;;20.60;99.90;;;;;;5036152;28;20041;-75
2022/09/29 02:50:31;;;;;;;;;;;20.50;99.90;;;;;;5036987;28;20037;-72
2022/09/29 02:53:03;;;;;;;7.57;4.18;;;20.60;99.90;;;;;;5053932;28;19920;-71
2022/09/29 02:55:42;;;;;;;10.93;3.75;;;20.60;99.90;;;;;;5036437;28;20037;-71
2022/09/29 02:58:19;;;;;;;14.50;3.97;;;20.60;99.90;;;;;;5054117;28;20043;-71
2022/09/29 03:00:47;;;;;;;9.30;4.65;;;20.60;99.90;;;;;;5019611;28;20057;-72
2022/09/29 03:03:14;;;;;;;19.60;4.50;;;20.70;99.90;;;;;;5071407;28;20051;-72
2022/09/29 03:05:42;;;;;;;10.52;4.35;;;20.60;99.90;;;;;;5055728;28;20116;-72
2022/09/29 03:08:09;;;;;;;7.80;4.15;;;20.60;99.90;;;;;;5038772;28;20059;-73
2022/09/29 03:10:36;;;;;;;12.00;4.50;;;20.70;99.90;;;;;;5009253;28;20136;-71
2022/09/29 03:13:04;;;;;;;9.40;4.40;;;20.80;99.90;;;;;;5051758;28;20145;-76
2022/09/29 03:15:31;;;;;;;12.38;5.55;;;20.80;99.90;;;;;;5028462;28;20073;-72
2022/09/29 03:18:01;;;;;;;8.85;3.47;;;20.80;99.90;;;;;;5019109;28;20045;-72
2022/09/29 03:20:30;;;;;;;9.15;4.00;;;20.80;99.90;;;;;;5052123;28;20048;-72
2022/09/29 03:22:58;;;;;;;10.02;3.65;;;20.80;99.90;;;;;;5035470;28;20056;-72
2022/09/29 03:25:25;;;;;;;14.77;4.07;;;20.90;99.90;;;;;;5053926;28;20045;-71
2022/09/29 03:27:53;;;;;;;6.57;2.92;;;20.90;99.90;;;;;;5019578;28;20114;-72
2022/09/29 03:30:22;;;;;;;6.47;2.92;;;20.90;99.90;;;;;;5052414;28;20068;-72
2022/09/29 03:32:49;;;;;;;5.28;3.38;;;20.90;99.90;;;;;;5051768;28;20113;-72
2022/09/29 03:35:17;;;;;;;10.95;3.03;;;20.90;99.90;;;;;;5035574;28;20152;-72
2022/09/29 03:37:45;;;;;;;5.28;2.90;;;20.90;99.90;;;;;;5035182;28;20099;-72
2022/09/29 03:40:13;;;;;;;6.00;2.80;;;20.90;99.90;;;;;;5034529;28;20083;-72
2022/09/29 03:42:41;;;;;;;6.57;3.55;;;20.90;99.90;;;;;;5020032;28;20045;-72
2022/09/29 03:45:08;;;;;;;7.85;3.83;;;21.00;99.90;;;;;;5053112;28;20080;-72
2022/09/29 03:47:36;;;;;;;6.68;3.83;;;21.00;99.90;;;;;;5051558;28;20407;-72
2022/09/29 03:50:04;;;;;;;8.82;3.47;;;21.00;99.90;;;;;;5035116;28;20076;-72
2022/09/29 03:52:31;;;;;;;6.25;3.40;;;21.00;99.90;;;;;;5053020;28;20499;-72
2022/09/29 03:54:58;;;;;;;8.13;4.38;;;21.10;99.90;;;;;;5052863;28;20041;-72
2022/09/29 03:57:26;;;;;;;19.00;5.13;;;21.00;99.90;;;;;;5035120;28;20037;-72
2022/09/29 03:59:54;;;;;;;8.68;4.20;;;20.90;99.90;;;;;;5052971;28;20041;-72
2022/09/29 04:02:33;;;;;;;5.43;3.28;;;20.90;99.90;;;;;;5053200;28;20502;-72
2022/09/29 04:05:19;;;;;;;7.57;2.95;;;20.90;99.90;;;;;;5030627;28;20259;-72
2022/09/29 04:07:47;;;;;;;7.03;3.58;;;20.90;99.90;;;;;;5013204;28;20045;-74
2022/09/29 04:10:14;;;;;;;12.52;3.95;;;20.90;99.90;;;;;;5013640;28;20135;-72
2022/09/29 04:12:42;;;;;;;8.75;4.78;;;20.90;99.90;;;;;;5030608;28;20118;-85
2022/09/29 04:15:10;;;;;;;5.05;2.70;;;20.90;99.90;;;;;;5030639;28;20450;-71
2022/09/29 04:17:37;;;;;;;8.10;3.10;;;20.90;99.90;;;;;;5014423;28;20048;-71
2022/09/29 04:20:06;;;;;;;5.80;2.85;;;20.90;99.90;;;;;;5030546;28;20041;-72
2022/09/29 04:22:34;;;;;;;8.88;3.28;;;20.90;99.90;;;;;;5030331;28;20155;-72
2022/09/29 04:25:01;;;;;;;6.97;3.42;;;20.90;99.90;;;;;;5030432;28;20528;-71
2022/09/29 04:27:29;;;;;;;6.43;2.92;;;20.90;99.90;;;;;;5030469;28;20089;-72
2022/09/29 04:29:56;;;;;;;5.85;3.80;;;20.90;99.90;;;;;;4997155;28;20053;-72
2022/09/29 04:32:24;;;;;;;10.02;4.78;;;20.80;99.90;;;;;;5030116;28;20416;-72
2022/09/29 04:34:52;;;;;;;6.07;3.45;;;20.80;99.90;;;;;;5013939;28;20084;-72
2022/09/29 04:37:19;;;;;;;7.28;3.70;;;20.80;99.90;;;;;;4997151;28;20046;-72
2022/09/29 04:39:47;;;;;;;12.25;4.07;;;20.70;99.90;;;;;;4997271;28;20411;-72
2022/09/29 04:42:14;;;;;;;7.97;3.55;;;20.70;99.90;;;;;;5023171;28;20052;-71
2022/09/29 04:44:42;;;;;;;6.85;2.90;;;20.60;99.90;;;;;;5053783;28;20451;-76
2022/09/29 04:47:09;;;;;;;8.02;3.50;;;20.60;99.90;;;;;;5051790;28;20445;-73
2022/09/29 04:49:37;;;;;;;9.18;4.32;;;20.60;99.90;;;;;;5037471;28;20186;-72
2022/09/29 04:52:04;;;;;;;14.02;3.42;;;20.60;99.90;;;;;;5054009;28;20452;-72
2022/09/29 04:54:33;;;;;;;6.28;3.60;;;20.60;99.90;;;;;;5071529;28;20140;-72
2022/09/29 04:57:04;;;;;;;7.80;3.58;;;20.50;99.90;;;;;;5038028;28;20057;-72
2022/09/29 04:59:32;;;;;;;8.48;4.28;;;20.50;99.90;;;;;;5072399;28;20122;-72
2022/09/29 05:02:00;;;;;;;12.00;4.38;;;20.40;99.90;;;;;;5037745;28;20165;-72
2022/09/29 05:04:27;;;;;;;6.50;3.25;;;20.40;99.90;;;;;;5053584;28;20090;-72
2022/09/29 05:06:55;;;;;;;7.03;3.70;;;20.40;99.90;;;;;;5052665;28;20123;-72
2022/09/29 05:09:22;;;;;;;7.82;3.00;;;20.50;99.90;;;;;;5071397;28;20127;-71
2022/09/29 05:11:50;;;;;;;5.03;2.75;;;20.50;99.90;;;;;;5037283;28;20323;-72
2022/09/29 05:14:18;;;;;;;11.20;3.45;;;20.60;99.90;;;;;;5071337;28;20044;-72
2022/09/29 05:16:45;;;;;;;11.02;3.60;;;20.60;99.90;;;;;;5071373;28;20041;-72
2022/09/29 05:19:13;;;;;;;6.25;3.63;;;20.60;99.90;;;;;;5036538;28;20494;-72
2022/09/29 05:21:40;;;;;;;8.55;2.72;;;20.60;99.90;;;;;;5036860;28;20063;-72
2022/09/29 05:24:08;;;;;;;5.28;3.00;;;20.50;99.90;;;;;;5053776;28;20063;-74
2022/09/29 05:26:36;;;;;;;4.45;2.15;;;20.50;99.90;;;;;;5053674;28;20052;-72
2022/09/29 05:29:03;;;;;;;7.10;2.65;;;20.40;99.90;;;;;;5071206;28;20045;-72
2022/09/29 05:31:31;;;;;;;7.38;3.15;;;20.40;99.90;;;;;;5053729;28;20333;-72
2022/09/29 05:33:58;;;;;;;8.68;4.10;;;20.40;99.90;;;;;;5037169;28;20348;-72
2022/09/29 05:36:26;;;;;;;6.38;2.83;;;20.40;99.90;;;;;;5071679;28;20068;-71
2022/09/29 05:38:54;;;;;;;5.78;2.17;;;20.50;99.90;;;;;;5070671;28;20480;-72
2022/09/29 05:41:22;;;;;;;6.85;2.47;;;20.50;99.90;;;;;;5037238;28;20056;-72
2022/09/29 05:43:52;;;;;;;4.65;2.35;;;20.60;99.90;;;;;;5036774;28;20499;-72
2022/09/29 05:46:21;;;;;;;9.43;2.30;;;20.70;99.90;;;;;;5021286;28;20445;-71
2022/09/29 05:48:52;;;;;;;6.32;2.53;;;20.70;99.90;;;;;;5036892;28;20045;-72
2022/09/29 05:51:22;;;;;;;3.78;1.90;;;20.80;99.90;;;;;;5036869;28;20055;-72
2022/09/29 05:53:50;;;;;;;5.72;2.03;;;20.80;99.90;;;;;;5053056;28;20045;-72
2022/09/29 05:56:22;;;;;;;5.25;2.17;;;20.80;99.90;;;;;;5053436;28;20449;-72
2022/09/29 05:58:50;;;;;;;8.15;3.13;;;20.90;99.90;;;;;;5053025;28;20051;-72
2022/09/29 06:01:20;;;;;;;8.18;3.85;;;21.00;99.90;;;;;;5053225;28;20044;-72
2022/09/29 06:03:49;;;;;;;7.70;2.33;;;21.20;99.90;;;;;;5037152;28;20055;-72
2022/09/29 06:06:23;;;;;;;7.07;3.47;;;21.30;99.90;;;;;;5038943;28;20049;-71
2022/09/29 06:08:52;;;;;;;4.40;2.67;;;21.50;99.90;;;;;;5044614;28;20056;-71
2022/09/29 06:11:25;;;;;;;5.65;2.10;;;21.60;99.90;;;;;;5031661;28;20110;-79
2022/09/29 06:13:53;;;;;;;7.97;3.17;;;21.80;99.90;;;;;;5015658;28;20045;-77
2022/09/29 06:16:24;;;;;;;4.00;2.60;;;21.80;99.90;;;;;;5008004;28;20373;-73
2022/09/29 06:18:52;;;;;;;5.88;2.10;;;21.80;99.90;;;;;;5020869;28;20132;-84
2022/09/29 06:21:25;;;;;;;5.63;2.40;;;21.90;99.90;;;;;;5043788;28;20045;-72
2022/09/29 06:23:54;;;;;;;4.28;2.45;;;21.90;99.90;;;;;;5052934;28;20045;-76
2022/09/29 06:26:23;;;;;;;6.55;2.17;;;21.90;99.90;;;;;;5043353;28;20089;-72
2022/09/29 06:28:55;;;;;;;6.90;2.20;;;21.90;99.90;;;;;;5032681;28;20045;-72
2022/09/29 06:31:25;;;;;;;7.97;2.53;;;21.90;99.90;;;;;;5043451;28;20041;-78
2022/09/29 06:33:55;;;;;;;5.72;2.58;;;22.00;99.90;;;;;;5052642;28;20052;-85
2022/09/29 06:39:16;;;;;;;4.22;2.20;;;22.10;99.90;;;;;;5034803;28;20103;-72
2022/09/29 06:41:50;;;;;;;5.30;2.28;;;22.10;99.90;;;;;;5001024;28;20048;-71
2022/09/29 06:44:19;;;;;;;4.93;2.22;;;22.20;99.90;;;;;;5017787;28;20340;-72
2022/09/29 06:46:47;;;;;;;4.78;2.20;;;22.10;99.90;;;;;;5035605;28;20479;-72
2022/09/29 06:49:15;;;;;;;3.90;2.67;;;22.20;99.90;;;;;;5037074;28;20048;-71
2022/09/29 06:51:43;;;;;;;7.55;3.08;;;22.10;99.90;;;;;;5036990;28;20040;-72
2022/09/29 06:54:17;;;;;;;5.95;2.45;;;22.10;99.90;;;;;;5036348;28;20048;-72
2022/09/29 06:56:52;;;;;;;8.13;3.13;;;22.10;99.90;;;;;;5052879;28;20053;-73
2022/09/29 06:59:20;;;;;;;4.82;2.67;;;22.10;99.90;;;;;;5036411;28;20098;-72
2022/09/29 07:01:48;;;;;;;8.60;3.10;;;22.00;99.90;;;;;;5034964;28;20045;-72
2022/09/29 07:04:17;;;;;;;5.00;2.50;;;21.90;99.90;;;;;;5053055;28;20045;-72
2022/09/29 07:06:45;;;;;;;6.32;3.10;;;21.90;99.90;;;;;;5052481;28;20056;-72
2022/09/29 07:09:16;;;;;;;4.78;2.10;;;22.00;99.90;;;;;;5049917;28;20045;-73
2022/09/29 07:11:46;;;;;;;5.20;2.17;;;22.00;99.90;;;;;;5035087;28;20049;-72
2022/09/29 07:14:15;;;;;;;6.80;2.13;;;21.90;99.90;;;;;;5052571;28;20925;-72
2022/09/29 07:16:43;;;;;;;6.75;1.98;;;21.90;99.90;;;;;;5054590;28;20398;-78
2022/09/29 07:19:10;;;;;;;8.85;2.10;;;22.00;99.90;;;;;;5073127;28;20072;-72
2022/09/29 07:21:38;;;;;;;7.93;2.30;;;22.10;99.90;;;;;;5073918;28;20150;-72
2022/09/29 07:24:06;;;;;;;6.75;2.72;;;22.20;99.90;;;;;;5038924;28;20048;-72
2022/09/29 07:26:33;;;;;;;5.82;2.33;;;22.40;99.90;;;;;;5055513;28;20139;-72
2022/09/29 07:29:00;;;;;;;8.35;3.40;;;22.50;99.90;;;;;;5039071;28;20052;-72
2022/09/29 07:31:28;;;;;;;9.13;4.32;;;22.60;99.90;;;;;;5055610;28;20122;-72
2022/09/29 07:33:57;;;;;;;5.13;2.78;;;22.60;99.90;;;;;;5055808;28;20127;-72
2022/09/29 07:36:24;;;;;;;4.68;2.75;;;22.60;99.90;;;;;;5038944;28;20055;-72
2022/09/29 07:38:51;;;;;;;6.55;2.33;;;22.50;99.90;;;;;;5072521;28;20589;-73
2022/09/29 07:41:21;;;;;;;6.85;2.40;;;22.50;99.90;;;;;;5054925;28;20121;-72
2022/09/29 07:43:48;;;;;;;7.50;2.47;;;22.60;99.90;;;;;;5054551;28;20074;-72
2022/09/29 07:46:16;;;;;;;8.95;3.58;;;22.60;99.90;;;;;;5072512;28;20044;-73
2022/09/29 07:48:43;;;;;;;5.47;2.83;;;22.70;99.90;;;;;;5037838;28;20048;-73
2022/09/29 07:51:16;;;;;;;8.45;2.72;;;22.70;99.90;;;;;;5072487;28;20128;-72
2022/09/29 07:53:44;;;;;;;12.07;2.85;;;22.80;99.90;;;;;;5038162;28;20095;-72
2022/09/29 07:56:17;;;;;;;4.20;2.70;;;22.70;99.90;;;;;;5021570;28;20080;-72
2022/09/29 07:58:47;;;;;;;10.55;2.80;;;22.60;99.90;;;;;;5036989;28;20116;-72
2022/09/29 08:01:15;;;;;;;7.00;2.47;;;22.60;99.90;;;;;;5021755;28;20095;-72
2022/09/29 08:03:48;;;;;;;4.25;2.35;;;22.70;99.90;;;;;;5054633;28;20125;-72
2022/09/29 08:06:15;;;;;;;4.55;2.30;;;22.80;99.90;;;;;;5038588;28;20079;-72
2022/09/29 08:08:44;;;;;;;8.07;2.45;;;22.90;99.90;;;;;;5072275;28;20453;-72
2022/09/29 08:11:20;;;;;;;15.55;3.05;;;23.00;99.90;;;;;;5055020;28;20040;-72
2022/09/29 08:13:55;;;;;;;17.55;4.35;;;23.10;99.90;;;;;;5038083;28;20627;-74
2022/09/29 08:16:22;;;;;;;7.60;2.33;;;23.20;99.90;;;;;;5054344;28;20143;-72
2022/09/29 08:18:50;;;;;;;8.32;2.88;;;23.20;99.90;;;;;;5071958;28;20040;-72
2022/09/29 08:21:17;;;;;;;7.78;3.53;;;23.20;99.90;;;;;;5038006;28;20483;-72
2022/09/29 08:23:45;;;;;;;5.78;2.20;;;23.20;99.90;;;;;;5055060;28;20117;-73
2022/09/29 08:26:15;;;;;;;8.10;3.17;;;23.30;99.90;;;;;;5071985;28;20032;-72
2022/09/29 08:28:44;;;;;;;5.75;2.67;;;23.30;99.90;;;;;;5038073;28;20056;-78
2022/09/29 08:31:19;;;;;;;7.82;3.42;;;23.10;99.90;;;;;;5071693;28;20126;-72
2022/09/29 08:33:48;;;;;;;6.65;2.80;;;23.00;99.90;;;;;;5051013;28;20359;-72
2022/09/29 08:36:17;;;;;;;11.10;2.75;;;22.90;99.90;;;;;;5021449;28;20045;-71
2022/09/29 08:38:50;;;;;;;5.15;2.35;;;22.70;99.90;;;;;;5037795;28;20451;-72
2022/09/29 08:41:36;;;;;;;8.25;2.53;;;22.80;99.90;;;;;;5054426;28;20041;-72
2022/09/29 08:44:11;;;;;;;8.23;2.05;;;22.80;99.90;;;;;;5037583;28;20048;-72
2022/09/29 08:46:59;;;;;;;7.32;2.80;;;22.80;99.90;;;;;;5054081;28;20048;-72
2022/09/29 08:49:42;;;;;;;6.97;2.70;;;22.90;99.90;;;;;;5038849;28;20059;-72
2022/09/29 08:52:21;;;;;;;7.43;3.13;;;22.90;99.90;;;;;;5037461;28;20059;-72
2022/09/29 08:54:55;;;;;;;7.85;2.80;;;22.90;99.90;;;;;;5036707;28;20053;-73
2022/09/29 08:57:24;;;;;;;7.03;2.45;;;22.90;99.90;;;;;;5053883;28;20056;-74
2022/09/29 08:59:54;;;;;;;12.50;4.13;;;22.90;99.90;;;;;;5054335;28;20370;-72
2022/09/29 09:02:47;;;;;;;6.00;2.15;;;22.80;99.90;;;;;;5071258;28;20037;-72
2022/09/29 09:05:29;;;;;;;7.80;1.88;;;22.80;99.90;;;;;;5065173;28;20403;-72
2022/09/29 09:08:13;;;;;;;4.40;1.95;;;22.70;99.90;;;;;;5054711;28;20044;-72
2022/09/29 09:10:49;;;;;;;7.20;2.05;;;22.80;99.90;;;;;;5038001;28;20143;-72
2022/09/29 09:13:35;;;;;;;7.03;1.95;;;22.80;99.90;;;;;;5072462;28;20419;-71
2022/09/29 09:16:05;;;;;;;6.10;2.08;;;22.90;99.90;;;;;;5051025;28;20076;-72
2022/09/29 09:18:51;;;;;;;5.20;1.80;;;23.00;99.90;;;;;;5051160;28;20112;-73
2022/09/29 09:21:26;;;;;;;3.83;1.53;;;23.00;99.90;;;;;;5034683;28;20126;-73
2022/09/29 09:24:11;;;;;;;6.80;2.60;;;23.00;99.90;;;;;;5018419;28;20056;-73
2022/09/29 09:26:41;;;;;;;4.25;1.23;;;23.10;99.90;;;;;;5034431;28;20049;-73
2022/09/29 09:29:31;;;;;;;4.05;1.60;;;23.20;99.90;;;;;;5034868;28;20115;-73
2022/09/29 09:32:22;;;;;;;2.97;1.27;;;23.20;99.90;;;;;;5034703;28;20076;-73
2022/09/29 09:35:03;;;;;;;3.05;1.10;;;23.10;99.90;;;;;;5050759;28;20068;-74
2022/09/29 09:37:43;;;;;;;7.45;1.70;;;23.20;99.90;;;;;;5035122;28;20043;-84
2022/09/29 09:40:22;;;;;;;5.95;1.35;;;23.20;99.90;;;;;;5050978;28;20048;-73
2022/09/29 09:42:58;;;;;;;3.17;1.60;;;23.30;99.90;;;;;;5051115;28;20107;-73
2022/09/29 09:45:36;;;;;;;4.05;1.77;;;23.40;99.90;;;;;;5050979;28;20143;-73
2022/09/29 09:48:25;;;;;;;4.55;1.15;;;23.40;99.90;;;;;;5052155;28;20042;-72
2022/09/29 09:51:00;;;;;;;3.75;1.60;;;23.50;99.90;;;;;;5034805;28;20126;-73
2022/09/29 09:53:39;;;;;;;4.05;1.45;;;23.50;99.90;;;;;;5034004;28;20055;-72
2022/09/29 09:56:15;;;;;;;3.28;1.10;;;23.60;99.90;;;;;;5050801;28;20072;-72
2022/09/29 09:58:42;;;;;;;;;;;23.70;99.90;;;;;;5051557;28;20076;-84
2022/09/29 10:01:13;;;;;;;3.50;1.30;;;23.90;99.90;;;;;;5034592;28;20405;-72
2022/09/29 10:03:40;;;;;;;4.38;1.63;;;24.10;99.90;;;;;;5050616;28;20044;-72
2022/09/29 10:06:08;;;;;;;5.07;1.75;;;24.30;99.90;;;;;;5049338;28;20126;-74
2022/09/29 10:08:39;;;;;;;4.05;1.35;;;24.50;99.90;;;;;;5033534;28;20080;-73
2022/09/29 10:11:29;;;;;;;4.85;2.10;;;24.80;99.90;;;;;;5049522;28;20156;-74
2022/09/29 10:14:25;;;;;;;3.33;1.75;;;25.00;99.90;;;;;;5049773;28;20049;-72
2022/09/29 10:17:06;;;;;;;5.95;1.80;;;25.20;99.90;;;;;;5029133;28;20053;-72
2022/09/29 10:20:06;;;;;;;6.28;2.40;;;25.10;99.90;;;;;;5029790;28;20489;-72
2022/09/29 10:22:35;;;;;;;4.95;2.33;;;25.20;99.90;;;;;;5008624;28;20065;-72
2022/09/29 10:25:15;;;;;;;4.07;2.15;;;25.50;99.90;;;;;;5029634;28;20559;-72
2022/09/29 10:27:52;;;;;;;5.43;1.48;;;25.80;99.40;;;;;;5030404;28;20059;-73
2022/09/29 10:30:32;;;;;;;5.82;1.67;;;26.10;99.10;;;;;;4997176;28;20049;-76
2022/09/29 10:33:02;;;;;;;3.20;1.30;;;26.20;98.50;;;;;;5013270;28;20042;-73
2022/09/29 10:35:39;;;;;;;6.00;1.98;;;26.30;98.30;;;;;;5029880;28;20037;-72
2022/09/29 10:38:23;;;;;;;5.75;2.53;;;26.40;98.10;;;;;;5013657;28;20045;-72
2022/09/29 10:41:03;;;;;;;9.52;2.13;;;26.30;97.40;;;;;;4997248;28;20085;-72
2022/09/29 10:43:37;;;;;;;5.90;2.05;;;26.20;97.90;;;;;;5013739;28;20034;-72
2022/09/29 10:46:45;;;;;;;6.47;1.48;;;26.20;97.70;;;;;;5029218;28;20049;-76
2022/09/29 10:49:21;;;;;;;3.90;1.80;;;26.10;97.30;;;;;;5029217;28;20037;-75
2022/09/29 10:52:23;;;;;;;7.00;3.47;;;26.10;98.30;;;;;;5033210;28;20096;-72
2022/09/29 10:54:58;;;;;;;12.05;3.80;;;25.80;98.70;;;;;;5030165;28;20107;-73
2022/09/29 10:57:28;;;;;;;7.27;3.20;;;25.80;99.30;;;;;;5017215;28;20038;-73
2022/09/29 10:59:57;;;;;;;5.68;3.67;;;25.80;99.00;;;;;;5017001;28;20240;-73
2022/09/29 11:02:24;;;;;;;5.18;2.60;;;25.80;98.80;;;;;;5032913;28;20140;-72
2022/09/29 11:04:55;;;;;;;7.72;2.47;;;25.90;98.90;;;;;;5032520;28;20042;-72
2022/09/29 11:07:22;;;;;;;5.07;2.22;;;26.00;99.10;;;;;;5016555;28;20372;-72
2022/09/29 11:09:53;;;;;;;5.05;1.77;;;25.90;98.50;;;;;;5016187;28;20052;-73
2022/09/29 11:12:33;;;;;;;5.93;2.28;;;25.90;98.60;;;;;;5016062;28;20484;-74
2022/09/29 11:15:01;;;;;;;7.28;1.60;;;25.90;98.40;;;;;;5039467;28;20057;-72
2022/09/29 11:17:47;;;;;;;3.47;1.60;;;25.80;98.40;;;;;;5027908;28;20123;-72
2022/09/29 11:20:16;;;;;;;4.30;1.77;;;25.60;98.20;;;;;;5032620;28;20037;-72
2022/09/29 11:23:13;;;;;;;18.52;2.13;;;25.50;99.10;;;;;;5032368;28;20172;-73
2022/09/29 11:25:49;;;;;;;4.60;1.45;;;25.40;99.40;;;;;;5016587;28;20108;-73
2022/09/29 11:28:17;;;;;;;2.88;1.33;;;25.40;99.70;;;;;;5016673;28;20056;-73
2022/09/29 11:31:00;;;;;;;2.78;1.42;;;25.40;99.70;;;;;;5016380;28;20084;-73
2022/09/29 11:33:46;;;;;;;4.47;1.50;;;25.40;99.60;;;;;;5034262;28;20042;-73
2022/09/29 11:36:43;;;;;;;4.28;1.60;;;25.50;99.40;;;;;;5033613;28;20060;-73
2022/09/29 11:39:14;;;;;;;3.85;1.15;;;25.40;98.50;;;;;;5027496;28;20056;-72
2022/09/29 11:42:38;;;;;;;3.22;1.40;;;25.70;98.30;;;;;;5016072;28;20196;-72
2022/09/29 11:45:13;;;;;;;5.90;1.58;;;25.90;96.90;;;;;;4975454;28;20116;-73
2022/09/29 11:48:22;;;;;;;1.92;0.98;;;25.90;96.30;;;;;;4990316;28;20038;-73
2022/09/29 11:51:09;;;;;;;1.88;1.20;;;25.80;96.40;;;;;;5029257;28;20049;-72
2022/09/29 11:54:06;;;;;;;3.15;1.23;;;25.70;96.40;;;;;;5030788;28;20428;-73
2022/09/29 11:56:57;;;;;;;2.50;1.00;;;25.60;96.70;;;;;;4999899;28;20468;-73
2022/09/29 11:59:53;;;;;;;3.67;1.65;;;25.60;97.00;;;;;;5033224;28;20776;-72
2022/09/29 12:02:52;;;;;;;2.43;1.20;;;25.50;96.90;;;;;;5017625;28;20061;-72
2022/09/29 12:05:48;;;;;;;3.17;0.73;;;25.60;97.20;;;;;;5044905;28;20295;-73
2022/09/29 12:08:38;;;;;;;2.90;0.98;;;25.70;96.90;;;;;;5041103;28;20037;-73
2022/09/29 12:11:23;;;;;;;2.10;0.93;;;25.70;97.30;;;;;;5034859;28;20376;-73
2022/09/29 12:14:25;;;;;;;2.58;1.05;;;25.60;97.60;;;;;;5052021;28;20052;-73
2022/09/29 12:16:59;;;;;;;1.77;0.90;;;25.50;98.30;;;;;;5018287;28;20098;-73
2022/09/29 12:19:30;;;;;;;4.75;1.20;;;25.60;98.60;;;;;;5016536;28;20068;-73
2022/09/29 12:22:02;;;;;;;2.45;0.93;;;25.70;98.80;;;;;;5035327;28;20041;-72
2022/09/29 12:24:41;;;;;;;1.30;0.90;;;25.80;99.00;;;;;;5033263;28;20052;-73
2022/09/29 12:27:24;;;;;;;5.70;1.90;;;25.80;98.90;;;;;;5038568;28;20102;-73
2022/09/29 12:30:29;;;;;;;2.17;1.27;;;25.90;98.80;;;;;;5051004;28;20082;-73
2022/09/29 12:33:05;;;;;;;2.58;1.00;;;26.00;99.20;;;;;;5026670;28;20055;-73
2022/09/29 12:39:35;;;;;;;1.52;0.70;;;25.90;99.00;;;;;;5060705;28;20064;-73
2022/09/29 12:42:07;;;;;;;1.65;0.70;;;25.80;99.00;;;;;;5037634;28;20693;-73
2022/09/29 12:44:43;;;;;;;5.45;1.15;;;25.50;99.20;;;;;;5033512;28;20045;-72
2022/09/29 12:47:30;;;;;;;1.95;0.90;;;25.50;99.50;;;;;;5053219;28;20071;-73
2022/09/29 12:50:40;;;;;;;3.10;0.90;;;25.60;99.40;;;;;;5038698;28;20060;-72
2022/09/29 12:53:34;;;;;;;2.30;0.90;;;25.60;99.30;;;;;;5042144;28;20048;-74
2022/09/29 12:56:21;;;;;;;2.03;1.13;;;25.50;98.20;;;;;;5041489;28;20040;-72
2022/09/29 12:59:15;;;;;;;2.92;0.90;;;25.50;98.30;;;;;;5054647;28;20045;-73
2022/09/29 13:01:42;;;;;;;1.58;0.85;;;25.40;98.40;;;;;;5038071;28;20461;-73
2022/09/29 13:04:28;;;;;;;2.38;0.77;;;25.50;98.50;;;;;;5034302;28;20828;-73
2022/09/29 13:07:22;;;;;;;4.05;0.90;;;25.50;98.30;;;;;;5045519;28;20201;-75
2022/09/29 13:10:20;;;;;;;2.85;1.52;;;25.40;98.30;;;;;;5022855;28;20177;-72
2022/09/29 13:13:01;;;;;;;1.63;0.80;;;25.30;98.30;;;;;;5052398;28;20048;-75
2022/09/29 13:15:47;;;;;;;6.03;1.20;;;25.30;98.20;;;;;;5072075;28;20063;-73
2022/09/29 13:18:20;;;;;;;;;;;25.40;98.40;;;;;;5041610;28;20036;-72
2022/09/29 13:20:47;;;;;;;2.50;0.85;;;25.50;98.50;;;;;;5035521;28;20366;-73
2022/09/29 13:23:53;;;;;;;1.15;0.70;;;25.60;98.50;;;;;;5040594;28;20052;-72
2022/09/29 13:26:56;;;;;;;27.30;5.75;;;25.70;98.80;;;;;;5050058;28;20202;-76
2022/09/29 13:29:27;;;;;;;14.70;2.88;;;25.70;99.00;;;;;;5054002;28;20041;-72
2022/09/29 13:31:56;;;;;;;4.60;1.48;;;25.70;99.50;;;;;;5048550;28;20098;-75
2022/09/29 13:34:29;;;;;;;3.67;1.10;;;25.70;99.50;;;;;;5037430;28;20091;-73